createdAt,value
2023-03-28T00:00:21.272Z,1.23
2023-03-28T00:02:52.533Z,1.87
2023-03-28T00:05:24.742Z,0.83
2023-03-28T00:07:56.958Z,1.13
2023-03-28T00:10:27.994Z,1.33
2023-03-28T00:13:01.532Z,1.67
2023-03-28T00:15:33.291Z,3.73
2023-03-28T00:18:05.676Z,3.47
2023-03-28T00:20:39.284Z,1.70
2023-03-28T00:23:26.168Z,1.53
2023-03-28T00:25:58.650Z,2.17
2023-03-28T00:28:29.553Z,1.93
2023-03-28T00:31:11.446Z,2.53
2023-03-28T00:33:42.081Z,2.13
2023-03-28T00:36:14.295Z,1.67
2023-03-28T00:38:46.091Z,2.60
2023-03-28T00:41:18.356Z,1.43
2023-03-28T00:43:52.281Z,4.47
2023-03-28T00:46:32.494Z,2.77
2023-03-28T00:49:09.049Z,2.30
2023-03-28T00:51:42.584Z,3.07
2023-03-28T00:54:17.284Z,1.50
2023-03-28T00:56:51.141Z,2.70
2023-03-28T00:59:24.846Z,3.30
2023-03-28T01:01:56.232Z,3.50
2023-03-28T01:04:29.820Z,2.03
2023-03-28T01:07:00.626Z,2.67
2023-03-28T01:09:31.749Z,1.63
2023-03-28T01:12:05.230Z,2.23
2023-03-28T01:14:39.287Z,1.90
2023-03-28T01:17:11.588Z,2.93
2023-03-28T01:19:55.801Z,4.30
2023-03-28T01:22:56.607Z,1.63
2023-03-28T01:25:53.825Z,1.00
2023-03-28T01:28:52.556Z,1.83
2023-03-28T01:31:41.947Z,1.87
2023-03-28T01:34:19.956Z,2.57
2023-03-28T01:36:59.423Z,2.00
2023-03-28T01:39:41.949Z,1.37
2023-03-28T01:42:48.391Z,2.03
2023-03-28T01:45:24.907Z,2.80
2023-03-28T01:48:19.221Z,2.47
2023-03-28T01:51:01.273Z,2.57
2023-03-28T01:53:37.618Z,4.33
2023-03-28T01:56:18.675Z,3.10
2023-03-28T01:58:55.517Z,2.30
2023-03-28T02:01:33.567Z,3.13
2023-03-28T02:04:20.693Z,2.40
2023-03-28T02:06:44.794Z,1.77
2023-03-28T02:09:17.810Z,2.10
2023-03-28T02:11:51.092Z,3.07
2023-03-28T02:14:25.834Z,2.20
2023-03-28T02:17:00.460Z,3.70
2023-03-28T02:19:33.836Z,7.03
2023-03-28T02:22:25.151Z,4.63
2023-03-28T02:24:56.453Z,3.17
2023-03-28T02:27:29.111Z,2.97
2023-03-28T02:29:59.617Z,2.53
2023-03-28T02:32:32.929Z,3.03
2023-03-28T02:35:07.009Z,3.73
2023-03-28T02:37:44.468Z,5.83
2023-03-28T02:40:20.816Z,1.73
2023-03-28T02:43:13.819Z,2.70
2023-03-28T02:45:53.305Z,4.00
2023-03-28T02:48:33.686Z,2.40
2023-03-28T02:51:25.344Z,3.33
2023-03-28T02:54:19.670Z,2.77
2023-03-28T02:56:59.014Z,2.03
2023-03-28T02:59:32.663Z,2.53
2023-03-28T03:02:04.178Z,1.70
2023-03-28T03:04:34.724Z,2.40
2023-03-28T03:07:05.240Z,1.97
2023-03-28T03:09:35.903Z,4.17
2023-03-28T03:12:06.607Z,2.00
2023-03-28T03:14:39.333Z,3.90
2023-03-28T03:17:09.797Z,3.27
2023-03-28T03:19:43.171Z,2.63
2023-03-28T03:22:20.942Z,4.93
2023-03-28T03:24:46.475Z,5.23
2023-03-28T03:27:17.580Z,4.17
2023-03-28T03:29:48.635Z,4.27
2023-03-28T03:32:19.308Z,5.00
2023-03-28T03:34:50.734Z,8.90
2023-03-28T03:37:21.310Z,5.33
2023-03-28T03:39:51.912Z,3.10
2023-03-28T03:42:24.537Z,4.77
2023-03-28T03:44:55.405Z,2.50
2023-03-28T03:47:29.645Z,5.97
2023-03-28T03:50:00.308Z,6.50
2023-03-28T03:52:32.082Z,3.20
2023-03-28T03:55:02.566Z,2.63
2023-03-28T03:57:34.464Z,3.17
2023-03-28T04:00:08.816Z,9.93
2023-03-28T04:02:42.153Z,7.47
2023-03-28T04:05:12.869Z,7.53
2023-03-28T04:07:43.528Z,4.93
2023-03-28T04:10:15.050Z,5.73
2023-03-28T04:12:45.722Z,7.53
2023-03-28T04:15:16.438Z,4.03
2023-03-28T04:17:48.934Z,4.57
2023-03-28T04:20:20.955Z,8.30
2023-03-28T04:22:51.481Z,4.33
2023-03-28T04:25:24.981Z,2.93
2023-03-28T04:27:57.010Z,5.20
2023-03-28T04:30:27.858Z,6.00
2023-03-28T04:32:59.187Z,5.60
2023-03-28T04:35:29.825Z,5.03
2023-03-28T04:38:02.989Z,4.00
2023-03-28T04:40:35.354Z,8.80
2023-03-28T04:43:05.995Z,9.47
2023-03-28T04:45:36.536Z,6.50
2023-03-28T04:48:08.817Z,6.47
2023-03-28T04:50:39.713Z,5.80
2023-03-28T04:53:10.909Z,3.83
2023-03-28T04:55:45.508Z,10.10
2023-03-28T04:58:17.988Z,13.00
2023-03-28T05:00:49.648Z,15.77
2023-03-28T05:03:22.943Z,12.47
2023-03-28T05:05:54.490Z,13.23
2023-03-28T05:08:26.599Z,8.10
2023-03-28T05:10:57.252Z,9.90
2023-03-28T05:13:28.227Z,9.87
2023-03-28T05:15:58.989Z,11.27
2023-03-28T05:18:29.734Z,5.57
2023-03-28T05:21:00.671Z,3.73
2023-03-28T05:23:31.427Z,4.53
2023-03-28T05:26:02.673Z,3.70
2023-03-28T05:28:36.225Z,5.10
2023-03-28T05:31:12.852Z,2.27
2023-03-28T05:33:45.664Z,5.77
2023-03-28T05:36:17.754Z,5.30
2023-03-28T05:38:50.941Z,6.33
2023-03-28T05:41:22.945Z,2.77
2023-03-28T05:43:54.282Z,3.67
2023-03-28T05:46:24.947Z,3.37
2023-03-28T05:48:56.059Z,3.40
2023-03-28T05:51:27.594Z,3.37
2023-03-28T05:54:00.839Z,3.67
2023-03-28T05:56:34.829Z,4.07
2023-03-28T05:59:06.805Z,4.07
2023-03-28T06:01:40.145Z,4.97
2023-03-28T06:04:11.456Z,3.53
2023-03-28T06:06:50.266Z,4.10
2023-03-28T06:09:22.926Z,5.57
2023-03-28T06:11:56.447Z,6.77
2023-03-28T06:14:27.224Z,6.97
2023-03-28T06:16:58.040Z,4.47
2023-03-28T06:19:29.328Z,4.63
2023-03-28T06:21:59.821Z,3.50
2023-03-28T06:24:30.660Z,4.60
2023-03-28T06:27:01.388Z,4.20
2023-03-28T06:29:32.057Z,4.17
2023-03-28T06:32:02.777Z,8.13
2023-03-28T06:34:33.530Z,4.03
2023-03-28T06:37:06.713Z,2.77
2023-03-28T06:39:37.170Z,2.57
2023-03-28T06:42:08.576Z,3.47
2023-03-28T06:44:39.110Z,3.30
2023-03-28T06:47:09.571Z,6.97
2023-03-28T06:49:41.388Z,7.23
2023-03-28T06:52:12.091Z,2.70
2023-03-28T06:54:42.645Z,8.10
2023-03-28T06:57:13.508Z,4.60
2023-03-28T06:59:44.429Z,2.40
2023-03-28T07:02:17.661Z,5.47
2023-03-28T07:04:48.449Z,4.77
2023-03-28T07:07:19.133Z,4.40
2023-03-28T07:09:54.625Z,4.73
2023-03-28T07:12:26.255Z,4.80
2023-03-28T07:14:57.852Z,5.57
2023-03-28T07:17:28.569Z,2.93
2023-03-28T07:20:01.306Z,6.13
2023-03-28T07:22:32.562Z,3.43
2023-03-28T07:25:04.763Z,3.03
2023-03-28T07:27:35.808Z,3.63
2023-03-28T07:30:08.447Z,2.43
2023-03-28T07:32:53.020Z,3.67
2023-03-28T07:35:13.555Z,6.70
2023-03-28T07:37:44.284Z,3.40
2023-03-28T07:40:15.305Z,3.50
2023-03-28T07:42:47.484Z,2.40
2023-03-28T07:45:18.214Z,1.63
2023-03-28T07:47:50.064Z,4.50
2023-03-28T07:50:23.630Z,2.67
2023-03-28T07:53:01.080Z,4.37
2023-03-28T07:55:44.948Z,4.33
2023-03-28T07:58:08.902Z,4.47
2023-03-28T08:00:40.363Z,5.90
2023-03-28T08:03:13.760Z,1.73
2023-03-28T08:05:48.486Z,3.03
2023-03-28T08:08:20.899Z,2.10
2023-03-28T08:10:52.674Z,2.23
2023-03-28T08:13:24.948Z,1.97
2023-03-28T08:15:57.138Z,3.07
2023-03-28T08:18:28.117Z,2.10
2023-03-28T08:21:02.213Z,2.60
2023-03-28T08:23:33.492Z,1.83
2023-03-28T08:26:07.809Z,2.57
2023-03-28T08:28:39.535Z,1.40
2023-03-28T08:31:14.504Z,4.63
2023-03-28T08:33:51.679Z,2.10
2023-03-28T08:36:24.462Z,1.67
2023-03-28T08:38:57.317Z,1.67
2023-03-28T08:41:46.061Z,2.00
2023-03-28T08:44:26.144Z,2.03
2023-03-28T08:47:03.256Z,3.90
2023-03-28T08:49:38.111Z,1.87
2023-03-28T08:52:11.482Z,2.13
2023-03-28T08:54:48.084Z,3.40
2023-03-28T08:57:25.059Z,1.40
2023-03-28T09:00:16.924Z,1.30
2023-03-28T09:02:49.757Z,2.40
2023-03-28T09:05:24.089Z,1.53
2023-03-28T09:08:23.306Z,1.83
2023-03-28T09:11:13.908Z,3.13
2023-03-28T09:14:00.531Z,2.17
2023-03-28T09:16:51.986Z,2.47
2023-03-28T09:19:48.996Z,1.30
2023-03-28T09:22:38.119Z,1.97
2023-03-28T09:25:44.648Z,2.73
2023-03-28T09:28:21.393Z,1.53
2023-03-28T09:30:54.206Z,2.60
2023-03-28T09:33:33.409Z,1.37
2023-03-28T09:36:06.863Z,1.67
2023-03-28T09:38:42.576Z,2.30
2023-03-28T09:41:20.641Z,1.27
2023-03-28T09:43:54.251Z,2.67
2023-03-28T09:46:49.177Z,1.50
2023-03-28T09:49:23.736Z,2.50
2023-03-28T09:51:57.056Z,0.93
2023-03-28T09:54:36.604Z,1.03
2023-03-28T09:57:08.722Z,12.43
2023-03-28T09:59:39.725Z,1.57
2023-03-28T10:02:28.717Z,1.73
2023-03-28T10:04:59.644Z,10.10
2023-03-28T10:07:39.247Z,3.80
2023-03-28T10:10:22.370Z,1.90
2023-03-28T10:12:59.800Z,1.40
2023-03-28T10:15:42.772Z,1.20
2023-03-28T10:18:21.629Z,1.83
2023-03-28T10:20:52.402Z,2.23
2023-03-28T10:23:27.179Z,5.33
2023-03-28T10:26:01.036Z,9.53
2023-03-28T10:28:34.594Z,3.33
2023-03-28T10:31:07.700Z,1.20
2023-03-28T10:33:44.153Z,1.07
2023-03-28T10:36:17.866Z,1.20
2023-03-28T10:38:50.257Z,1.40
2023-03-28T10:41:25.719Z,1.63
2023-03-28T10:43:57.026Z,4.00
2023-03-28T10:46:38.064Z,1.73
2023-03-28T10:49:16.954Z,1.97
2023-03-28T10:51:48.658Z,0.90
2023-03-28T10:54:46.220Z,5.23
2023-03-28T10:57:32.774Z,1.97
2023-03-28T11:00:15.492Z,0.80
2023-03-28T11:03:01.089Z,1.00
2023-03-28T11:05:34.797Z,1.37
2023-03-28T11:08:30.580Z,1.40
2023-03-28T11:11:10.406Z,1.13
2023-03-28T11:13:58.548Z,0.93
2023-03-28T11:16:37.856Z,1.20
2023-03-28T11:19:21.096Z,1.90
2023-03-28T11:22:21.612Z,1.70
2023-03-28T11:25:15.911Z,0.90
2023-03-28T11:27:49.428Z,2.33
2023-03-28T11:30:23.029Z,1.23
2023-03-28T11:33:05.409Z,1.80
2023-03-28T11:35:48.404Z,0.80
2023-03-28T11:38:31.012Z,4.47
2023-03-28T11:41:04.572Z,1.60
2023-03-28T11:44:00.880Z,0.95
2023-03-28T11:46:38.108Z,1.47
2023-03-28T11:49:46.074Z,1.45
2023-03-28T11:52:28.911Z,0.93
2023-03-28T11:55:15.079Z,1.47
2023-03-28T11:58:12.512Z,1.77
2023-03-28T12:00:54.835Z,1.35
2023-03-28T12:03:36.017Z,1.20
2023-03-28T12:06:34.357Z,1.80
2023-03-28T12:09:20.222Z,2.00
2023-03-28T12:11:54.048Z,1.10
2023-03-28T12:14:56.811Z,3.03
2023-03-28T12:17:30.725Z,1.17
2023-03-28T12:20:01.331Z,0.73
2023-03-28T12:22:38.227Z,2.57
2023-03-28T12:25:14.108Z,1.10
2023-03-28T12:27:47.624Z,1.43
2023-03-28T12:30:39.106Z,0.93
2023-03-28T12:33:23.090Z,1.10
2023-03-28T12:36:17.620Z,0.83
2023-03-28T12:38:57.813Z,1.10
2023-03-28T12:41:34.014Z,1.03
2023-03-28T12:44:11.051Z,2.30
2023-03-28T12:46:47.600Z,1.80
2023-03-28T12:49:21.126Z,1.40
2023-03-28T12:51:54.875Z,1.40
2023-03-28T12:54:28.464Z,1.67
2023-03-28T12:57:07.957Z,1.10
2023-03-28T12:59:45.797Z,0.93
2023-03-28T13:02:31.395Z,1.20
2023-03-28T13:05:15.468Z,1.17
2023-03-28T13:07:52.372Z,0.80
2023-03-28T13:10:44.896Z,1.00
2023-03-28T13:13:43.201Z,1.47
2023-03-28T13:16:25.550Z,0.80
2023-03-28T13:19:09.516Z,2.37
2023-03-28T13:21:49.598Z,1.87
2023-03-28T13:24:36.216Z,2.10
2023-03-28T13:27:16.557Z,1.80
2023-03-28T13:29:49.899Z,1.73
2023-03-28T13:32:25.603Z,3.52
2023-03-28T13:34:59.900Z,1.37
2023-03-28T13:37:46.288Z,4.13
2023-03-28T13:40:41.856Z,1.67
2023-03-28T13:43:43.776Z,1.17
2023-03-28T13:46:17.766Z,1.37
2023-03-28T13:48:57.280Z,3.33
2023-03-28T13:51:30.854Z,2.47
2023-03-28T13:54:01.406Z,2.57
2023-03-28T13:56:36.401Z,0.90
2023-03-28T13:59:08.736Z,1.63
2023-03-28T14:01:57.349Z,0.83
2023-03-28T14:04:33.453Z,1.40
2023-03-28T14:07:05.736Z,2.50
2023-03-28T14:09:37.899Z,1.67
2023-03-28T14:12:12.454Z,1.43
2023-03-28T14:14:55.647Z,0.80
2023-03-28T14:17:32.546Z,4.10
2023-03-28T14:20:06.209Z,1.37
2023-03-28T14:22:49.409Z,2.33
2023-03-28T14:25:17.932Z,1.20
2023-03-28T14:27:55.197Z,2.45
2023-03-28T14:30:32.081Z,1.05
2023-03-28T14:33:13.478Z,1.23
2023-03-28T14:35:45.639Z,1.87
2023-03-28T14:38:19.981Z,2.37
2023-03-28T14:40:50.643Z,1.50
2023-03-28T14:43:33.392Z,1.10
2023-03-28T14:48:40.160Z,3.62
2023-03-28T14:51:13.600Z,1.50
2023-03-28T14:53:48.642Z,1.50
2023-03-28T14:56:25.781Z,1.60
2023-03-28T14:59:02.314Z,1.00
2023-03-28T15:01:34.212Z,1.45
2023-03-28T15:04:08.272Z,1.83
2023-03-28T15:06:39.234Z,1.98
2023-03-28T15:09:28.401Z,2.60
2023-03-28T15:12:01.912Z,1.10
2023-03-28T15:14:38.688Z,1.43
2023-03-28T15:17:18.045Z,1.00
2023-03-28T15:19:53.265Z,1.00
2023-03-28T15:22:27.229Z,2.13
2023-03-28T15:24:59.308Z,4.28
2023-03-28T15:27:35.853Z,2.33
2023-03-28T15:30:32.298Z,1.00
2023-03-28T15:33:07.063Z,2.30
2023-03-28T15:35:40.371Z,0.77
2023-03-28T15:38:25.710Z,1.67
2023-03-28T15:41:14.524Z,1.00
2023-03-28T15:43:58.255Z,0.80
2023-03-28T15:46:35.257Z,0.90
2023-03-28T15:49:09.192Z,1.70
2023-03-28T15:51:44.182Z,2.37
2023-03-28T15:54:28.126Z,1.20
2023-03-28T15:56:49.926Z,2.70
2023-03-28T15:59:23.494Z,3.17
2023-03-28T16:02:13.499Z,1.40
2023-03-28T16:04:57.936Z,2.90
2023-03-28T16:07:37.120Z,1.67
2023-03-28T16:10:08.347Z,1.70
2023-03-28T16:12:39.078Z,1.47
2023-03-28T16:15:10.496Z,1.87
2023-03-28T16:17:44.194Z,1.30
2023-03-28T16:20:25.387Z,1.90
2023-03-28T16:22:56.893Z,1.32
2023-03-28T16:25:30.394Z,3.20
2023-03-28T16:28:00.971Z,1.20
2023-03-28T16:30:34.894Z,1.83
2023-03-28T16:33:06.446Z,1.40
2023-03-28T16:35:39.258Z,1.35
2023-03-28T16:38:17.312Z,3.23
2023-03-28T16:40:50.127Z,1.63
2023-03-28T16:43:27.069Z,1.40
2023-03-28T16:45:57.663Z,2.33
2023-03-28T16:48:28.300Z,2.23
2023-03-28T16:51:02.237Z,1.57
2023-03-28T16:53:40.336Z,4.30
2023-03-28T16:56:14.135Z,2.07
2023-03-28T16:58:55.655Z,2.70
2023-03-28T17:01:28.126Z,1.37
2023-03-28T17:03:59.974Z,3.10
2023-03-28T17:06:33.670Z,2.37
2023-03-28T17:09:04.564Z,3.10
2023-03-28T17:11:37.533Z,2.83
2023-03-28T17:14:08.143Z,4.17
2023-03-28T17:16:40.566Z,1.97
2023-03-28T17:19:17.734Z,3.12
2023-03-28T17:21:54.470Z,2.77
2023-03-28T17:24:25.136Z,3.57
2023-03-28T17:26:56.079Z,3.65
2023-03-28T17:29:26.910Z,3.80
2023-03-28T17:31:57.523Z,2.07
2023-03-28T17:34:33.293Z,3.50
2023-03-28T17:37:06.295Z,4.60
2023-03-28T17:39:40.593Z,2.50
2023-03-28T17:42:11.857Z,6.47
2023-03-28T17:44:42.392Z,3.97
2023-03-28T17:47:15.055Z,7.93
2023-03-28T17:49:45.693Z,4.00
2023-03-28T17:52:16.596Z,6.80
2023-03-28T17:54:49.563Z,6.43
2023-03-28T17:57:19.614Z,5.40
2023-03-28T17:59:50.544Z,5.07
2023-03-28T18:02:21.690Z,4.83
2023-03-28T18:04:52.409Z,4.40
2023-03-28T18:07:23.492Z,5.20
2023-03-28T18:09:55.330Z,4.63
2023-03-28T18:12:27.300Z,6.10
2023-03-28T18:15:01.146Z,7.80
2023-03-28T18:17:32.259Z,6.23
2023-03-28T18:20:03.265Z,3.93
2023-03-28T18:22:36.753Z,4.10
2023-03-28T18:25:08.513Z,7.60
2023-03-28T18:27:39.148Z,6.28
2023-03-28T18:30:10.589Z,6.00
2023-03-28T18:32:41.262Z,7.03
2023-03-28T18:35:13.807Z,6.07
2023-03-28T18:37:46.114Z,4.77
2023-03-28T18:40:16.927Z,6.70
2023-03-28T18:42:48.629Z,4.77
2023-03-28T18:45:19.272Z,5.80
2023-03-28T18:47:49.933Z,6.33
2023-03-28T18:50:21.149Z,5.73
2023-03-28T18:52:52.888Z,7.77
2023-03-28T18:55:23.625Z,5.80
2023-03-28T18:57:54.192Z,5.60
2023-03-28T19:00:25.325Z,5.83
2023-03-28T19:02:55.902Z,5.43
2023-03-28T19:05:28.391Z,5.00
2023-03-28T19:07:59.880Z,4.37
2023-03-28T19:10:31.923Z,5.97
2023-03-28T19:13:02.424Z,4.60
2023-03-28T19:15:33.018Z,6.97
2023-03-28T19:18:06.753Z,8.53
2023-03-28T19:20:38.498Z,8.33
2023-03-28T19:23:09.173Z,8.20
2023-03-28T19:25:42.471Z,6.07
2023-03-28T19:28:12.954Z,7.03
2023-03-28T19:30:44.953Z,7.93
2023-03-28T19:33:15.858Z,7.57
2023-03-28T19:35:47.298Z,8.10
2023-03-28T19:38:18.041Z,6.03
2023-03-28T19:40:52.981Z,5.53
2023-03-28T19:43:27.012Z,5.57
2023-03-28T19:46:06.340Z,5.40
2023-03-28T19:48:36.978Z,5.33
2023-03-28T19:51:07.661Z,7.72
2023-03-28T19:53:38.988Z,5.50
2023-03-28T19:56:11.847Z,5.90
2023-03-28T19:58:42.693Z,5.97
2023-03-28T20:01:13.524Z,6.87
2023-03-28T20:03:44.327Z,7.83
2023-03-28T20:06:17.073Z,6.00
2023-03-28T20:08:48.411Z,5.57
2023-03-28T20:11:19.635Z,4.37
2023-03-28T20:13:50.477Z,5.10
2023-03-28T20:16:21.445Z,6.03
2023-03-28T20:18:55.350Z,8.37
2023-03-28T20:21:27.671Z,5.73
2023-03-28T20:23:59.085Z,5.90
2023-03-28T20:26:31.354Z,4.87
2023-03-28T20:29:01.970Z,4.97
2023-03-28T20:31:34.377Z,7.60
2023-03-28T20:34:05.090Z,11.63
2023-03-28T20:36:36.598Z,6.33
2023-03-28T20:39:07.105Z,5.50
2023-03-28T20:41:38.157Z,5.63
2023-03-28T20:44:08.725Z,6.00
2023-03-28T20:46:39.318Z,6.77
2023-03-28T20:49:10.776Z,5.77
2023-03-28T20:51:41.429Z,7.07
2023-03-28T20:54:12.280Z,10.17
2023-03-28T20:56:43.147Z,4.43
2023-03-28T20:59:13.827Z,5.77
2023-03-28T21:01:45.999Z,5.47
2023-03-28T21:04:17.099Z,5.17
2023-03-28T21:06:50.432Z,7.30
2023-03-28T21:09:21.147Z,9.03
2023-03-28T21:11:53.624Z,9.00
2023-03-28T21:14:24.993Z,8.00
2023-03-28T21:16:57.819Z,8.13
2023-03-28T21:19:30.437Z,11.27
2023-03-28T21:22:01.557Z,9.87
2023-03-28T21:24:35.844Z,8.73
2023-03-28T21:27:06.823Z,7.20
2023-03-28T21:29:45.904Z,8.57
2023-03-28T21:32:16.150Z,10.70
2023-03-28T21:34:48.418Z,7.60
2023-03-28T21:37:28.832Z,8.90
2023-03-28T21:40:02.543Z,8.60
2023-03-28T21:42:35.016Z,5.40
2023-03-28T21:45:06.169Z,4.00
2023-03-28T21:47:40.310Z,10.53
2023-03-28T21:50:14.985Z,6.77
2023-03-28T21:52:45.890Z,7.87
2023-03-28T21:55:17.170Z,8.67
2023-03-28T21:57:47.626Z,6.10
2023-03-28T22:00:21.041Z,5.33
2023-03-28T22:02:54.932Z,9.30
2023-03-28T22:05:29.736Z,10.50
2023-03-28T22:07:58.630Z,6.10
2023-03-28T22:10:30.199Z,7.90
2023-03-28T22:13:02.350Z,8.80
2023-03-28T22:15:36.319Z,7.27
2023-03-28T22:18:08.976Z,8.80
2023-03-28T22:20:44.017Z,6.67
2023-03-28T22:23:14.607Z,8.17
2023-03-28T22:25:46.767Z,14.30
2023-03-28T22:28:20.068Z,13.43
2023-03-28T22:30:51.500Z,9.67
2023-03-28T22:33:23.259Z,6.40
2023-03-28T22:35:57.288Z,5.57
2023-03-28T22:38:29.844Z,5.87
2023-03-28T22:41:02.856Z,5.87
2023-03-28T22:43:37.146Z,9.53
2023-03-28T22:46:08.019Z,6.80
2023-03-28T22:48:39.360Z,8.03
2023-03-28T22:51:11.737Z,9.07
2023-03-28T22:53:42.551Z,5.80
2023-03-28T22:56:13.533Z,5.47
2023-03-28T22:58:44.253Z,5.63
2023-03-28T23:01:15.604Z,5.97
2023-03-28T23:03:46.736Z,9.50
2023-03-28T23:06:21.729Z,6.73
2023-03-28T23:08:52.473Z,7.20
2023-03-28T23:11:23.361Z,7.10
2023-03-28T23:13:53.974Z,7.00
2023-03-28T23:16:28.767Z,8.27
2023-03-28T23:18:59.817Z,5.62
2023-03-28T23:21:31.042Z,6.40
2023-03-28T23:24:02.413Z,9.80
2023-03-28T23:26:32.930Z,8.37
2023-03-28T23:29:05.624Z,6.27
2023-03-28T23:31:36.514Z,6.73
2023-03-28T23:34:09.879Z,8.43
2023-03-28T23:36:47.406Z,9.70
2023-03-28T23:39:17.784Z,5.97
2023-03-28T23:41:50.173Z,6.03
2023-03-28T23:44:27.851Z,8.47
2023-03-28T23:47:00.590Z,6.10
2023-03-28T23:49:32.393Z,4.77
2023-03-28T23:52:03.730Z,6.63
2023-03-28T23:54:34.576Z,7.93
2023-03-28T23:57:05.696Z,8.43
2023-03-28T23:59:36.721Z,8.73
